Airport View

Enter AWOS ICAO identifier for current METAR.

ex. KFNL

KCMH 262307Z 24008KT 10SM OVC016 02/M02 A2991 RMK AO2 T00171017

26 Jan 2020 23:26

Frequency: 124.6

Phone: 614-338-4083

Other Area AWOS: KOSU - KLCK - KTZR - KLHQ

TAF KCMH 261733Z 2618/2718 25012KT P6SM OVC012 FM270500 27006KT P6SM OVC013 FM271100 28005KT 5SM BR OVC009 FM271600 29006KT P6SM OVC012